sensor_id;sensor_type;location;lat;lon;timestamp;temperature;humidity
11280;DHT22;5696;50.928;6.960;2022-12-18T06:34:04;-4.10;99.90
11280;DHT22;5696;50.928;6.960;2022-12-18T06:36:30;-4.20;99.90
11280;DHT22;5696;50.928;6.960;2022-12-18T06:38:56;-4.10;99.90
11280;DHT22;5696;50.928;6.960;2022-12-18T06:41:22;-4.20;99.90
11280;DHT22;5696;50.928;6.960;2022-12-18T06:43:48;-4.20;99.90
11280;DHT22;5696;50.928;6.960;2022-12-18T06:46:14;-4.20;99.90
11280;DHT22;5696;50.928;6.960;2022-12-18T06:48:39;-4.20;99.90
11280;DHT22;5696;50.928;6.960;2022-12-18T06:51:05;-4.30;99.90
11280;DHT22;5696;50.928;6.960;2022-12-18T06:53:32;-4.30;99.90
11280;DHT22;5696;50.928;6.960;2022-12-18T06:56:05;-4.40;99.90
11280;DHT22;5696;50.928;6.960;2022-12-18T06:58:31;-4.40;99.90
11280;DHT22;5696;50.928;6.960;2022-12-18T07:01:02;-4.50;99.90
11280;DHT22;5696;50.928;6.960;2022-12-18T07:03:28;-4.50;99.90
11280;DHT22;5696;50.928;6.960;2022-12-18T07:05:53;-4.50;99.90
11280;DHT22;5696;50.928;6.960;2022-12-18T07:08:19;-4.50;99.90
11280;DHT22;5696;50.928;6.960;2022-12-18T07:10:44;-4.50;99.90
11280;DHT22;5696;50.928;6.960;2022-12-18T07:13:10;-4.60;99.90
11280;DHT22;5696;50.928;6.960;2022-12-18T07:15:36;-4.70;99.90
11280;DHT22;5696;50.928;6.960;2022-12-18T07:18:02;-4.70;99.90
11280;DHT22;5696;50.928;6.960;2022-12-18T07:20:27;-4.70;99.90
11280;DHT22;5696;50.928;6.960;2022-12-18T07:22:53;-4.70;99.90
11280;DHT22;5696;50.928;6.960;2022-12-18T07:25:19;-4.70;99.90
11280;DHT22;5696;50.928;6.960;2022-12-18T07:27:44;-4.70;99.90
11280;DHT22;5696;50.928;6.960;2022-12-18T07:30:10;-4.70;99.90
11280;DHT22;5696;50.928;6.960;2022-12-18T07:32:36;-4.70;99.90
11280;DHT22;5696;50.928;6.960;2022-12-18T07:35:02;-4.70;99.90
11280;DHT22;5696;50.928;6.960;2022-12-18T07:37:27;-4.70;99.90
11280;DHT22;5696;50.928;6.960;2022-12-18T07:39:53;-4.70;99.90
11280;DHT22;5696;50.928;6.960;2022-12-18T07:42:19;-4.70;99.90
11280;DHT22;5696;50.928;6.960;2022-12-18T07:44:57;-4.70;99.90
11280;DHT22;5696;50.928;6.960;2022-12-18T07:47:23;-4.60;99.90
11280;DHT22;5696;50.928;6.960;2022-12-18T07:49:48;-4.60;99.90
11280;DHT22;5696;50.928;6.960;2022-12-18T07:52:14;-4.50;99.90
11280;DHT22;5696;50.928;6.960;2022-12-18T07:54:40;-4.50;99.90
11280;DHT22;5696;50.928;6.960;2022-12-18T07:57:06;-4.50;99.90
11280;DHT22;5696;50.928;6.960;2022-12-18T07:59:32;-4.40;99.90
11280;DHT22;5696;50.928;6.960;2022-12-18T08:01:58;-4.30;99.90
11280;DHT22;5696;50.928;6.960;2022-12-18T08:04:24;-4.30;99.90
11280;DHT22;5696;50.928;6.960;2022-12-18T08:06:50;-4.20;99.90
11280;DHT22;5696;50.928;6.960;2022-12-18T08:09:16;-4.20;99.90
11280;DHT22;5696;50.928;6.960;2022-12-18T08:11:42;-4.10;99.90
11280;DHT22;5696;50.928;6.960;2022-12-18T08:14:07;-4.10;99.90
11280;DHT22;5696;50.928;6.960;2022-12-18T08:16:33;-4.10;99.90
11280;DHT22;5696;50.928;6.960;2022-12-18T08:18:59;-4.00;99.90
11280;DHT22;5696;50.928;6.960;2022-12-18T08:21:26;-3.90;99.90
11280;DHT22;5696;50.928;6.960;2022-12-18T08:23:54;-3.80;99.90
11280;DHT22;5696;50.928;6.960;2022-12-18T08:26:21;-3.70;99.90
11280;DHT22;5696;50.928;6.960;2022-12-18T08:28:46;-3.70;99.90
11280;DHT22;5696;50.928;6.960;2022-12-18T08:31:12;-3.60;99.90
11280;DHT22;5696;50.928;6.960;2022-12-18T08:33:40;-3.60;99.90
11280;DHT22;5696;50.928;6.960;2022-12-18T08:36:06;-3.60;99.90
11280;DHT22;5696;50.928;6.960;2022-12-18T08:38:34;-3.60;99.90
11280;DHT22;5696;50.928;6.960;2022-12-18T08:41:01;-3.50;99.90
11280;DHT22;5696;50.928;6.960;2022-12-18T08:43:27;-3.40;99.90
11280;DHT22;5696;50.928;6.960;2022-12-18T08:46:12;-3.30;99.90
11280;DHT22;5696;50.928;6.960;2022-12-18T08:48:37;-3.30;99.90
11280;DHT22;5696;50.928;6.960;2022-12-18T08:51:03;-3.10;99.90
11280;DHT22;5696;50.928;6.960;2022-12-18T08:53:29;-3.10;99.90
11280;DHT22;5696;50.928;6.960;2022-12-18T08:55:56;-2.90;99.90
11280;DHT22;5696;50.928;6.960;2022-12-18T08:58:22;-2.80;99.90
11280;DHT22;5696;50.928;6.960;2022-12-18T09:00:48;-2.80;99.90
11280;DHT22;5696;50.928;6.960;2022-12-18T09:03:18;-2.70;99.90
11280;DHT22;5696;50.928;6.960;2022-12-18T09:05:45;-2.70;99.90
11280;DHT22;5696;50.928;6.960;2022-12-18T09:08:11;-2.70;99.90
11280;DHT22;5696;50.928;6.960;2022-12-18T09:10:44;-2.60;99.90
11280;DHT22;5696;50.928;6.960;2022-12-18T09:13:11;-2.40;99.90
11280;DHT22;5696;50.928;6.960;2022-12-18T09:15:44;-2.30;99.90
11280;DHT22;5696;50.928;6.960;2022-12-18T09:18:11;-2.20;99.90
11280;DHT22;5696;50.928;6.960;2022-12-18T09:20:37;-2.20;99.90
11280;DHT22;5696;50.928;6.960;2022-12-18T09:23:04;-2.00;99.90
11280;DHT22;5696;50.928;6.960;2022-12-18T09:25:30;-2.00;99.90
11280;DHT22;5696;50.928;6.960;2022-12-18T09:28:04;-1.90;99.90
11280;DHT22;5696;50.928;6.960;2022-12-18T09:30:30;-1.70;99.90
11280;DHT22;5696;50.928;6.960;2022-12-18T09:32:55;-1.70;99.90
11280;DHT22;5696;50.928;6.960;2022-12-18T09:35:21;-1.60;99.90
11280;DHT22;5696;50.928;6.960;2022-12-18T09:37:47;-1.60;99.90
11280;DHT22;5696;50.928;6.960;2022-12-18T09:40:16;-1.40;99.90
11280;DHT22;5696;50.928;6.960;2022-12-18T09:42:45;-1.60;99.90
11280;DHT22;5696;50.928;6.960;2022-12-18T09:45:14;-1.30;99.90
11280;DHT22;5696;50.928;6.960;2022-12-18T09:47:41;-1.40;99.90
11280;DHT22;5696;50.928;6.960;2022-12-18T09:50:24;-1.40;99.90
11280;DHT22;5696;50.928;6.960;2022-12-18T09:52:54;-1.40;99.90
11280;DHT22;5696;50.928;6.960;2022-12-18T09:55:34;-1.20;99.90
11280;DHT22;5696;50.928;6.960;2022-12-18T10:01:25;-1.10;99.90
11280;DHT22;5696;50.928;6.960;2022-12-18T10:03:52;-1.10;99.90
11280;DHT22;5696;50.928;6.960;2022-12-18T10:06:29;-1.10;99.90
11280;DHT22;5696;50.928;6.960;2022-12-18T10:11:40;-0.80;99.90
11280;DHT22;5696;50.928;6.960;2022-12-18T10:22:03;-0.50;99.90
11280;DHT22;5696;50.928;6.960;2022-12-18T10:27:18;-0.40;99.90
11280;DHT22;5696;50.928;6.960;2022-12-18T10:29:46;-0.30;99.90
11280;DHT22;5696;50.928;6.960;2022-12-18T10:32:21;-0.20;99.90
11280;DHT22;5696;50.928;6.960;2022-12-18T10:34:49;0.00;99.90
11280;DHT22;5696;50.928;6.960;2022-12-18T10:37:17;0.00;99.90
11280;DHT22;5696;50.928;6.960;2022-12-18T10:39:44;-0.20;99.90
11280;DHT22;5696;50.928;6.960;2022-12-18T10:42:14;0.00;99.90
11280;DHT22;5696;50.928;6.960;2022-12-18T10:44:41;0.10;99.90
11280;DHT22;5696;50.928;6.960;2022-12-18T10:47:15;0.20;99.90
11280;DHT22;5696;50.928;6.960;2022-12-18T10:49:53;0.30;99.90
11280;DHT22;5696;50.928;6.960;2022-12-18T10:52:27;0.30;99.90
11280;DHT22;5696;50.928;6.960;2022-12-18T10:54:59;-0.10;99.90
11280;DHT22;5696;50.928;6.960;2022-12-18T10:57:37;0.20;99.90
11280;DHT22;5696;50.928;6.960;2022-12-18T11:00:32;0.40;99.90
11280;DHT22;5696;50.928;6.960;2022-12-18T11:02:58;0.30;99.90
11280;DHT22;5696;50.928;6.960;2022-12-18T11:05:31;0.30;99.90
11280;DHT22;5696;50.928;6.960;2022-12-18T11:07:58;0.40;99.90
11280;DHT22;5696;50.928;6.960;2022-12-18T11:10:41;0.40;99.90
11280;DHT22;5696;50.928;6.960;2022-12-18T11:13:21;0.60;99.90
11280;DHT22;5696;50.928;6.960;2022-12-18T11:15:47;0.60;99.90
11280;DHT22;5696;50.928;6.960;2022-12-18T11:18:28;0.80;99.90
11280;DHT22;5696;50.928;6.960;2022-12-18T11:20:58;0.80;99.90
11280;DHT22;5696;50.928;6.960;2022-12-18T11:23:25;0.70;99.90
11280;DHT22;5696;50.928;6.960;2022-12-18T11:25:53;0.60;99.90
11280;DHT22;5696;50.928;6.960;2022-12-18T11:28:36;0.40;99.90
11280;DHT22;5696;50.928;6.960;2022-12-18T11:31:28;0.50;99.90
11280;DHT22;5696;50.928;6.960;2022-12-18T11:37:12;0.50;99.90
11280;DHT22;5696;50.928;6.960;2022-12-18T11:39:44;0.40;99.90
11280;DHT22;5696;50.928;6.960;2022-12-18T11:42:20;0.30;99.90
11280;DHT22;5696;50.928;6.960;2022-12-18T11:45:00;0.20;99.90
11280;DHT22;5696;50.928;6.960;2022-12-18T11:48:02;0.20;99.90
11280;DHT22;5696;50.928;6.960;2022-12-18T11:50:45;0.50;99.90
11280;DHT22;5696;50.928;6.960;2022-12-18T11:53:12;0.40;99.90
11280;DHT22;5696;50.928;6.960;2022-12-18T11:58:51;0.30;99.90
11280;DHT22;5696;50.928;6.960;2022-12-18T12:08:00;0.50;99.90
11280;DHT22;5696;50.928;6.960;2022-12-18T12:10:34;0.40;99.90
11280;DHT22;5696;50.928;6.960;2022-12-18T12:15:58;0.40;99.90
11280;DHT22;5696;50.928;6.960;2022-12-18T12:35:32;0.30;99.90
11280;DHT22;5696;50.928;6.960;2022-12-18T12:38:16;0.30;99.90
11280;DHT22;5696;50.928;6.960;2022-12-18T12:40:51;0.40;99.90
11280;DHT22;5696;50.928;6.960;2022-12-18T12:43:44;0.50;99.90
11280;DHT22;5696;50.928;6.960;2022-12-18T12:46:14;0.50;99.90
11280;DHT22;5696;50.928;6.960;2022-12-18T12:48:50;0.50;99.90
11280;DHT22;5696;50.928;6.960;2022-12-18T12:51:26;0.50;99.90
11280;DHT22;5696;50.928;6.960;2022-12-18T12:53:54;0.60;99.90
11280;DHT22;5696;50.928;6.960;2022-12-18T12:56:22;0.50;99.90
11280;DHT22;5696;50.928;6.960;2022-12-18T12:59:04;0.60;99.90
11280;DHT22;5696;50.928;6.960;2022-12-18T13:02:02;0.70;99.90
11280;DHT22;5696;50.928;6.960;2022-12-18T13:04:47;0.50;99.90
11280;DHT22;5696;50.928;6.960;2022-12-18T13:07:23;0.40;99.90
11280;DHT22;5696;50.928;6.960;2022-12-18T13:10:52;0.40;99.90
11280;DHT22;5696;50.928;6.960;2022-12-18T13:13:04;0.50;99.90
11280;DHT22;5696;50.928;6.960;2022-12-18T13:15:44;0.50;99.90
11280;DHT22;5696;50.928;6.960;2022-12-18T13:18:20;0.30;99.90
11280;DHT22;5696;50.928;6.960;2022-12-18T13:21:02;0.40;99.90
11280;DHT22;5696;50.928;6.960;2022-12-18T13:23:36;0.10;99.90
11280;DHT22;5696;50.928;6.960;2022-12-18T13:36:38;0.30;99.90
11280;DHT22;5696;50.928;6.960;2022-12-18T13:41:51;0.40;99.90
11280;DHT22;5696;50.928;6.960;2022-12-18T13:44:37;0.30;99.90
11280;DHT22;5696;50.928;6.960;2022-12-18T13:47:05;0.20;99.90
11280;DHT22;5696;50.928;6.960;2022-12-18T13:49:49;0.20;99.90
11280;DHT22;5696;50.928;6.960;2022-12-18T13:52:20;0.20;99.90
11280;DHT22;5696;50.928;6.960;2022-12-18T13:54:52;0.20;99.90
11280;DHT22;5696;50.928;6.960;2022-12-18T13:57:28;0.20;99.90
11280;DHT22;5696;50.928;6.960;2022-12-18T13:59:54;0.10;99.90
11280;DHT22;5696;50.928;6.960;2022-12-18T14:02:26;0.30;99.90
11280;DHT22;5696;50.928;6.960;2022-12-18T14:04:52;0.30;99.90
11280;DHT22;5696;50.928;6.960;2022-12-18T14:07:24;0.30;99.90
11280;DHT22;5696;50.928;6.960;2022-12-18T14:09:54;0.40;99.90
11280;DHT22;5696;50.928;6.960;2022-12-18T14:12:28;0.30;99.90
11280;DHT22;5696;50.928;6.960;2022-12-18T14:17:57;0.30;99.90
11280;DHT22;5696;50.928;6.960;2022-12-18T14:20:25;0.30;99.90
11280;DHT22;5696;50.928;6.960;2022-12-18T14:22:51;0.20;99.90
11280;DHT22;5696;50.928;6.960;2022-12-18T14:25:18;0.10;99.90
11280;DHT22;5696;50.928;6.960;2022-12-18T14:30:41;0.00;99.90
11280;DHT22;5696;50.928;6.960;2022-12-18T14:35:38;-0.10;99.90
11280;DHT22;5696;50.928;6.960;2022-12-18T14:40:43;-0.40;99.90
11280;DHT22;5696;50.928;6.960;2022-12-18T14:43:10;-0.30;99.90
11280;DHT22;5696;50.928;6.960;2022-12-18T14:45:43;-0.30;99.90
11280;DHT22;5696;50.928;6.960;2022-12-18T14:50:39;-0.40;99.90
11280;DHT22;5696;50.928;6.960;2022-12-18T14:53:05;-0.40;99.90
11280;DHT22;5696;50.928;6.960;2022-12-18T14:55:30;-0.40;99.90
11280;DHT22;5696;50.928;6.960;2022-12-18T14:57:57;-0.40;99.90
11280;DHT22;5696;50.928;6.960;2022-12-18T15:00:24;-0.40;99.90
11280;DHT22;5696;50.928;6.960;2022-12-18T15:02:53;-0.50;99.90
11280;DHT22;5696;50.928;6.960;2022-12-18T15:05:25;-0.50;99.90
11280;DHT22;5696;50.928;6.960;2022-12-18T15:07:53;-0.50;99.90
11280;DHT22;5696;50.928;6.960;2022-12-18T15:10:24;-0.50;99.90
11280;DHT22;5696;50.928;6.960;2022-12-18T15:20:39;-0.50;99.90
11280;DHT22;5696;50.928;6.960;2022-12-18T15:25:45;-0.70;99.90
11280;DHT22;5696;50.928;6.960;2022-12-18T15:36:15;-0.70;99.90
11280;DHT22;5696;50.928;6.960;2022-12-18T15:38:49;-0.70;99.90
11280;DHT22;5696;50.928;6.960;2022-12-18T15:41:17;-0.70;99.90
11280;DHT22;5696;50.928;6.960;2022-12-18T15:43:44;-0.70;99.90
11280;DHT22;5696;50.928;6.960;2022-12-18T15:46:14;-0.70;99.90
11280;DHT22;5696;50.928;6.960;2022-12-18T15:48:48;-0.70;99.90
11280;DHT22;5696;50.928;6.960;2022-12-18T15:51:34;-0.80;99.90
11280;DHT22;5696;50.928;6.960;2022-12-18T15:54:03;-0.90;99.90
11280;DHT22;5696;50.928;6.960;2022-12-18T15:56:29;-0.80;99.90
11280;DHT22;5696;50.928;6.960;2022-12-18T15:59:18;-0.80;99.90
11280;DHT22;5696;50.928;6.960;2022-12-18T16:01:48;-0.80;99.90
11280;DHT22;5696;50.928;6.960;2022-12-18T16:04:16;-0.90;99.90
11280;DHT22;5696;50.928;6.960;2022-12-18T16:06:42;-0.90;99.90
11280;DHT22;5696;50.928;6.960;2022-12-18T16:09:08;-0.90;99.90
11280;DHT22;5696;50.928;6.960;2022-12-18T16:11:36;-0.90;99.90
11280;DHT22;5696;50.928;6.960;2022-12-18T16:14:25;-0.90;99.90
11280;DHT22;5696;50.928;6.960;2022-12-18T16:16:57;-0.90;99.90
11280;DHT22;5696;50.928;6.960;2022-12-18T16:19:23;-0.90;99.90
11280;DHT22;5696;50.928;6.960;2022-12-18T16:21:50;-0.90;99.90
11280;DHT22;5696;50.928;6.960;2022-12-18T16:24:17;-0.90;99.90
11280;DHT22;5696;50.928;6.960;2022-12-18T16:26:44;-1.00;99.90
11280;DHT22;5696;50.928;6.960;2022-12-18T16:29:10;-1.00;99.90
11280;DHT22;5696;50.928;6.960;2022-12-18T16:31:36;-1.00;99.90
11280;DHT22;5696;50.928;6.960;2022-12-18T16:36:48;-0.80;99.90
11280;DHT22;5696;50.928;6.960;2022-12-18T16:39:14;-0.80;99.90
11280;DHT22;5696;50.928;6.960;2022-12-18T16:41:40;-0.90;99.90
11280;DHT22;5696;50.928;6.960;2022-12-18T16:44:06;-0.90;99.90
11280;DHT22;5696;50.928;6.960;2022-12-18T16:46:31;-0.90;99.90
11280;DHT22;5696;50.928;6.960;2022-12-18T16:48:58;-0.80;99.90
11280;DHT22;5696;50.928;6.960;2022-12-18T16:51:24;-0.70;99.90
11280;DHT22;5696;50.928;6.960;2022-12-18T16:53:50;-0.80;99.90
11280;DHT22;5696;50.928;6.960;2022-12-18T16:56:15;-0.90;99.90
11280;DHT22;5696;50.928;6.960;2022-12-18T16:58:41;-0.90;99.90
11280;DHT22;5696;50.928;6.960;2022-12-18T17:01:10;-1.10;99.90
11280;DHT22;5696;50.928;6.960;2022-12-18T17:03:36;-1.10;99.90
11280;DHT22;5696;50.928;6.960;2022-12-18T17:06:05;-1.00;99.90
11280;DHT22;5696;50.928;6.960;2022-12-18T17:08:31;-1.00;99.90
11280;DHT22;5696;50.928;6.960;2022-12-18T17:11:04;-1.00;99.90
11280;DHT22;5696;50.928;6.960;2022-12-18T17:13:31;-1.00;99.90
11280;DHT22;5696;50.928;6.960;2022-12-18T17:16:07;-0.90;99.90
11280;DHT22;5696;50.928;6.960;2022-12-18T17:18:33;-0.90;99.90
11280;DHT22;5696;50.928;6.960;2022-12-18T17:21:00;-0.90;99.90
11280;DHT22;5696;50.928;6.960;2022-12-18T17:23:26;-0.90;99.90
11280;DHT22;5696;50.928;6.960;2022-12-18T17:25:56;-0.90;99.90
11280;DHT22;5696;50.928;6.960;2022-12-18T17:28:23;-0.80;99.90
11280;DHT22;5696;50.928;6.960;2022-12-18T17:30:51;-0.90;99.90
11280;DHT22;5696;50.928;6.960;2022-12-18T17:33:17;-1.00;99.90
11280;DHT22;5696;50.928;6.960;2022-12-18T17:35:43;-1.00;99.90
11280;DHT22;5696;50.928;6.960;2022-12-18T17:38:08;-0.90;99.90
11280;DHT22;5696;50.928;6.960;2022-12-18T17:40:35;-0.90;99.90
11280;DHT22;5696;50.928;6.960;2022-12-18T17:43:00;-0.90;99.90
11280;DHT22;5696;50.928;6.960;2022-12-18T17:45:26;-0.80;99.90
11280;DHT22;5696;50.928;6.960;2022-12-18T17:47:52;-0.80;99.90
11280;DHT22;5696;50.928;6.960;2022-12-18T17:50:18;-0.80;99.90
11280;DHT22;5696;50.928;6.960;2022-12-18T17:52:44;-0.90;99.90
11280;DHT22;5696;50.928;6.960;2022-12-18T17:55:10;-1.00;99.90
11280;DHT22;5696;50.928;6.960;2022-12-18T17:57:35;-1.00;99.90
11280;DHT22;5696;50.928;6.960;2022-12-18T18:00:02;-1.00;99.90
11280;DHT22;5696;50.928;6.960;2022-12-18T18:02:28;-1.00;99.90
11280;DHT22;5696;50.928;6.960;2022-12-18T18:04:54;-1.10;99.90
11280;DHT22;5696;50.928;6.960;2022-12-18T18:07:20;-1.10;99.90
11280;DHT22;5696;50.928;6.960;2022-12-18T18:09:45;-1.10;99.90
11280;DHT22;5696;50.928;6.960;2022-12-18T18:12:11;-1.00;99.90
11280;DHT22;5696;50.928;6.960;2022-12-18T18:14:56;-1.00;99.90
11280;DHT22;5696;50.928;6.960;2022-12-18T18:17:21;-0.90;99.90
11280;DHT22;5696;50.928;6.960;2022-12-18T18:19:47;-0.80;99.90
11280;DHT22;5696;50.928;6.960;2022-12-18T18:22:16;-0.80;99.90
11280;DHT22;5696;50.928;6.960;2022-12-18T18:24:42;-0.70;99.90
11280;DHT22;5696;50.928;6.960;2022-12-18T18:27:08;-0.80;99.90
11280;DHT22;5696;50.928;6.960;2022-12-18T18:29:34;-0.80;99.90
11280;DHT22;5696;50.928;6.960;2022-12-18T18:32:00;-0.80;99.90
11280;DHT22;5696;50.928;6.960;2022-12-18T18:34:28;-0.80;99.90
11280;DHT22;5696;50.928;6.960;2022-12-18T18:36:54;-0.80;99.90
11280;DHT22;5696;50.928;6.960;2022-12-18T18:39:20;-0.80;99.90
11280;DHT22;5696;50.928;6.960;2022-12-18T18:41:46;-0.90;99.90
11280;DHT22;5696;50.928;6.960;2022-12-18T18:44:12;-0.90;99.90
11280;DHT22;5696;50.928;6.960;2022-12-18T18:46:38;-1.00;99.90
11280;DHT22;5696;50.928;6.960;2022-12-18T18:49:04;-1.00;99.90
11280;DHT22;5696;50.928;6.960;2022-12-18T18:51:30;-1.00;99.90
11280;DHT22;5696;50.928;6.960;2022-12-18T18:53:56;-1.00;99.90
11280;DHT22;5696;50.928;6.960;2022-12-18T18:56:23;-0.80;99.90
11280;DHT22;5696;50.928;6.960;2022-12-18T18:58:48;-0.70;99.90
11280;DHT22;5696;50.928;6.960;2022-12-18T19:01:16;-0.80;99.90
11280;DHT22;5696;50.928;6.960;2022-12-18T19:03:43;-0.80;99.90
11280;DHT22;5696;50.928;6.960;2022-12-18T19:06:13;-0.90;99.90
11280;DHT22;5696;50.928;6.960;2022-12-18T19:08:39;-0.90;99.90
11280;DHT22;5696;50.928;6.960;2022-12-18T19:11:07;-0.90;99.90
11280;DHT22;5696;50.928;6.960;2022-12-18T19:13:54;-0.80;99.90
11280;DHT22;5696;50.928;6.960;2022-12-18T19:16:21;-0.70;99.90
11280;DHT22;5696;50.928;6.960;2022-12-18T19:18:46;-0.70;99.90
11280;DHT22;5696;50.928;6.960;2022-12-18T19:21:12;-0.70;99.90
11280;DHT22;5696;50.928;6.960;2022-12-18T19:23:38;-0.60;99.90
11280;DHT22;5696;50.928;6.960;2022-12-18T19:26:08;-0.60;99.90
11280;DHT22;5696;50.928;6.960;2022-12-18T19:28:34;-0.60;99.90
11280;DHT22;5696;50.928;6.960;2022-12-18T19:31:07;-0.60;99.90
11280;DHT22;5696;50.928;6.960;2022-12-18T19:33:36;-0.60;99.90
11280;DHT22;5696;50.928;6.960;2022-12-18T19:36:23;-0.50;99.90
11280;DHT22;5696;50.928;6.960;2022-12-18T19:38:50;-0.50;99.90
11280;DHT22;5696;50.928;6.960;2022-12-18T19:41:16;-0.50;99.90
11280;DHT22;5696;50.928;6.960;2022-12-18T19:43:43;-0.60;99.90
11280;DHT22;5696;50.928;6.960;2022-12-18T19:46:11;-0.70;99.90
11280;DHT22;5696;50.928;6.960;2022-12-18T19:48:39;-0.70;99.90
11280;DHT22;5696;50.928;6.960;2022-12-18T19:51:16;-0.70;99.90
11280;DHT22;5696;50.928;6.960;2022-12-18T19:53:42;-0.90;99.90
11280;DHT22;5696;50.928;6.960;2022-12-18T19:56:11;-0.80;99.90
11280;DHT22;5696;50.928;6.960;2022-12-18T19:58:38;-0.80;99.90
11280;DHT22;5696;50.928;6.960;2022-12-18T20:01:04;-0.80;99.90
11280;DHT22;5696;50.928;6.960;2022-12-18T20:03:30;-0.70;99.90
11280;DHT22;5696;50.928;6.960;2022-12-18T20:06:28;-0.70;99.90
11280;DHT22;5696;50.928;6.960;2022-12-18T20:08:57;-0.70;99.90
11280;DHT22;5696;50.928;6.960;2022-12-18T20:11:23;-0.60;99.90
11280;DHT22;5696;50.928;6.960;2022-12-18T20:13:49;-0.60;99.90
11280;DHT22;5696;50.928;6.960;2022-12-18T20:16:14;-0.60;99.90
11280;DHT22;5696;50.928;6.960;2022-12-18T20:18:40;-0.50;99.90
11280;DHT22;5696;50.928;6.960;2022-12-18T20:21:06;-0.60;99.90
11280;DHT22;5696;50.928;6.960;2022-12-18T20:23:32;-0.60;99.90
11280;DHT22;5696;50.928;6.960;2022-12-18T20:25:57;-0.60;99.90
11280;DHT22;5696;50.928;6.960;2022-12-18T20:28:24;-0.60;99.90
11280;DHT22;5696;50.928;6.960;2022-12-18T20:30:49;-0.60;99.90
11280;DHT22;5696;50.928;6.960;2022-12-18T20:33:16;-0.60;99.90
11280;DHT22;5696;50.928;6.960;2022-12-18T20:35:41;-0.60;99.90
11280;DHT22;5696;50.928;6.960;2022-12-18T20:38:07;-0.70;99.90
11280;DHT22;5696;50.928;6.960;2022-12-18T20:40:33;-0.60;99.90
11280;DHT22;5696;50.928;6.960;2022-12-18T20:42:59;-0.60;99.90
11280;DHT22;5696;50.928;6.960;2022-12-18T20:45:27;-0.50;99.90
11280;DHT22;5696;50.928;6.960;2022-12-18T20:47:53;-0.50;99.90
11280;DHT22;5696;50.928;6.960;2022-12-18T20:50:19;-0.50;99.90
11280;DHT22;5696;50.928;6.960;2022-12-18T20:52:46;-0.50;99.90
11280;DHT22;5696;50.928;6.960;2022-12-18T20:55:12;-0.40;99.90
11280;DHT22;5696;50.928;6.960;2022-12-18T20:57:38;-0.30;99.90
11280;DHT22;5696;50.928;6.960;2022-12-18T21:00:04;-0.40;99.90
11280;DHT22;5696;50.928;6.960;2022-12-18T21:02:30;-0.40;99.90
11280;DHT22;5696;50.928;6.960;2022-12-18T21:04:56;-0.30;99.90
11280;DHT22;5696;50.928;6.960;2022-12-18T21:07:21;-0.20;99.90
11280;DHT22;5696;50.928;6.960;2022-12-18T21:09:47;-0.20;99.90
11280;DHT22;5696;50.928;6.960;2022-12-18T21:12:13;-0.20;99.90
11280;DHT22;5696;50.928;6.960;2022-12-18T21:15:02;-0.20;99.90
11280;DHT22;5696;50.928;6.960;2022-12-18T21:17:28;-0.20;99.90
11280;DHT22;5696;50.928;6.960;2022-12-18T21:19:54;-0.30;99.90
11280;DHT22;5696;50.928;6.960;2022-12-18T21:22:20;-0.20;99.90
11280;DHT22;5696;50.928;6.960;2022-12-18T21:24:45;-0.20;99.90
11280;DHT22;5696;50.928;6.960;2022-12-18T21:27:11;0.00;99.90
11280;DHT22;5696;50.928;6.960;2022-12-18T21:29:37;-0.10;99.90
11280;DHT22;5696;50.928;6.960;2022-12-18T21:32:03;-0.10;99.90
11280;DHT22;5696;50.928;6.960;2022-12-18T21:34:30;-0.10;99.90
11280;DHT22;5696;50.928;6.960;2022-12-18T21:36:58;-0.10;99.90
11280;DHT22;5696;50.928;6.960;2022-12-18T21:39:24;-0.20;99.90
11280;DHT22;5696;50.928;6.960;2022-12-18T21:41:50;-0.10;99.90
11280;DHT22;5696;50.928;6.960;2022-12-18T21:44:35;-0.20;99.90
11280;DHT22;5696;50.928;6.960;2022-12-18T21:47:01;-0.20;99.90
11280;DHT22;5696;50.928;6.960;2022-12-18T21:49:27;-0.10;99.90
11280;DHT22;5696;50.928;6.960;2022-12-18T21:51:55;-0.10;99.90
11280;DHT22;5696;50.928;6.960;2022-12-18T21:54:21;-0.10;99.90
11280;DHT22;5696;50.928;6.960;2022-12-18T21:56:58;-0.10;99.90
11280;DHT22;5696;50.928;6.960;2022-12-18T21:59:32;-0.10;99.90
11280;DHT22;5696;50.928;6.960;2022-12-18T22:02:01;-0.10;99.90
11280;DHT22;5696;50.928;6.960;2022-12-18T22:04:27;0.00;99.90
11280;DHT22;5696;50.928;6.960;2022-12-18T22:06:53;0.00;99.90
11280;DHT22;5696;50.928;6.960;2022-12-18T22:09:21;0.00;99.90
11280;DHT22;5696;50.928;6.960;2022-12-18T22:11:48;0.00;99.90
11280;DHT22;5696;50.928;6.960;2022-12-18T22:14:14;0.10;99.90
11280;DHT22;5696;50.928;6.960;2022-12-18T22:16:41;0.10;99.90
11280;DHT22;5696;50.928;6.960;2022-12-18T22:19:08;0.00;99.90
11280;DHT22;5696;50.928;6.960;2022-12-18T22:21:35;-0.10;99.90
11280;DHT22;5696;50.928;6.960;2022-12-18T22:24:04;-0.10;99.90
11280;DHT22;5696;50.928;6.960;2022-12-18T22:26:33;-0.10;99.90
11280;DHT22;5696;50.928;6.960;2022-12-18T22:28:59;-0.10;99.90
11280;DHT22;5696;50.928;6.960;2022-12-18T22:31:43;0.00;99.90
11280;DHT22;5696;50.928;6.960;2022-12-18T22:34:09;-0.10;99.90
11280;DHT22;5696;50.928;6.960;2022-12-18T22:36:46;0.00;99.90
11280;DHT22;5696;50.928;6.960;2022-12-18T22:39:17;0.00;99.90
11280;DHT22;5696;50.928;6.960;2022-12-18T22:41:44;0.00;99.90
11280;DHT22;5696;50.928;6.960;2022-12-18T22:44:09;0.10;99.90
11280;DHT22;5696;50.928;6.960;2022-12-18T22:46:42;0.10;99.90
11280;DHT22;5696;50.928;6.960;2022-12-18T22:49:12;0.10;99.90
11280;DHT22;5696;50.928;6.960;2022-12-18T22:51:37;0.10;99.90
11280;DHT22;5696;50.928;6.960;2022-12-18T22:54:03;0.20;99.90
11280;DHT22;5696;50.928;6.960;2022-12-18T22:56:29;0.30;99.90
11280;DHT22;5696;50.928;6.960;2022-12-18T22:58:54;0.20;99.90
11280;DHT22;5696;50.928;6.960;2022-12-18T23:01:23;0.20;99.90
11280;DHT22;5696;50.928;6.960;2022-12-18T23:03:49;0.20;99.90
11280;DHT22;5696;50.928;6.960;2022-12-18T23:06:16;0.20;99.90
11280;DHT22;5696;50.928;6.960;2022-12-18T23:09:00;0.20;99.90
